• Join FlightAware (Why Join?)
  • Login
  • US Flag 
12:54PM EDT


 

Airport Tracker/Info


-or-


 

Live Flight TrackerFlight Track Log ✈ SWA139 ✈ 15-May-2012 ✈ KLAX - KELP

Flight Track Log - Related Links

Times and Time Zones

All times are in EDT time to prevent confusion due to time zone crossing. See the SWA139 flight status page for this flight to view local times or setup timezone preferences in your user account.

Time Position Orientation Groundspeed Altitude Reporting Facility
EDT Latitude Longitude Course Direction KTS MPH feet Rate Location/Type
07:23PM 33.9500 -118.4500 262° West 206 237 1,700  Level Southern California TRACON
07:24PM 33.9381 -118.5550 227° Southwest 229 264 5,300 3,000 Climbing Los Angeles Center
07:25PM 33.8889 -118.6186 159° South 243 280 9,000 3,300 Climbing Los Angeles Center
07:26PM 33.8042 -118.5786 157° South 207 238 12,000 2,820 Climbing Los Angeles Center
07:27PM 33.7111 -118.5308 117° Southeast 289 333 14,700 2,760 Climbing Los Angeles Center
07:28PM 33.6611 -118.4147 100° East 315 362 17,600 2,940 Climbing Los Angeles Center
07:29PM 33.6408 -118.2794 89° East 358 412 20,600 2,040 Climbing Los Angeles Center
07:30PM 33.6431 -118.1447 90° East 373 429 21,700 1,740 Climbing Los Angeles Center
07:31PM 33.6431 -118.0050 90° East 398 458 24,100 2,400 Climbing Los Angeles Center
07:32PM 33.6433 -117.8603 90° East 412 474 26,500 2,160 Climbing Los Angeles Center
07:33PM 33.6431 -117.7131 89° East 428 493 28,500 1,860 Climbing Los Angeles Center
07:34PM 33.6450 -117.5608 91° East 444 511 30,300 1,740 Climbing Los Angeles Center
07:35PM 33.6428 -117.3911 90° East 452 520 32,000 1,740 Climbing Los Angeles Center
07:36PM 33.6422 -117.2292 90° East 464 534 33,800 1,560 Climbing Los Angeles Center
07:37PM 33.6414 -117.0892 96° East 464 534 35,200 1,440 Climbing Los Angeles Center
07:38PM 33.6281 -116.9269 99° East 471 542 36,700 1,440 Climbing Los Angeles Center
07:39PM 33.6081 -116.7672 97° East 477 549 38,100 1,140 Climbing Los Angeles Center
07:40PM 33.5919 -116.6100 99° East 482 555 39,000 420 Climbing Los Angeles Center
07:41PM 33.5717 -116.4503 97° East 487 560 39,000  Level Los Angeles Center
07:42PM 33.5553 -116.2908 100° East 482 555 39,000  Level Los Angeles Center
07:43PM 33.5325 -116.1286 97° East 482 555 39,000  Level Los Angeles Center
07:44PM 33.5158 -115.9742 98° East 482 555 39,000  Level Los Angeles Center
07:45PM 33.4967 -115.8147 98° East 482 555 39,000  Level Los Angeles Center
07:46PM 33.4775 -115.6581 98° East 482 555 39,000  Level Los Angeles Center
07:47PM 33.4600 -115.5061 100° East 482 555 39,000  Level Los Angeles Center
07:48PM 33.4361 -115.3472 98° East 482 555 39,000  Level Los Angeles Center
07:49PM 33.4183 -115.1881 99° East 482 555 39,000  Level Los Angeles Center
07:50PM 33.3983 -115.0289 100° East 482 555 39,000  Level Los Angeles Center
07:51PM 33.3758 -114.8725 99° East 482 555 39,000  Level Los Angeles Center
07:52PM 33.3553 -114.7161 99° East 482 555 39,000  Level Los Angeles Center
07:54PM 33.3269 -114.4925 99° East 487 560 39,000  Level Albuquerque Center
07:55PM 33.3069 -114.3369 99° East 482 555 39,000  Level Albuquerque Center
07:56PM 33.2869 -114.1786 101° East 482 555 39,000  Level Albuquerque Center
07:57PM 33.2625 -114.0228 98° East 482 555 39,000  Level Albuquerque Center
07:58PM 33.2439 -113.8675 100° East 476 548 39,000  Level Albuquerque Center
07:59PM 33.2211 -113.7094 99° East 470 541 39,000  Level Albuquerque Center
08:00PM 33.2000 -113.5514 100° East 470 541 39,000  Level Albuquerque Center
08:01PM 33.1767 -113.3958 99° East 470 541 39,000  Level Albuquerque Center
08:02PM 33.1553 -113.2383 99° East 470 541 39,000  Level Albuquerque Center
08:03PM 33.1336 -113.0831 100° East 470 541 39,000  Level Albuquerque Center
08:04PM 33.1100 -112.9228 100° East 470 541 39,000  Level Albuquerque Center
08:05PM 33.0858 -112.7650 99° East 470 541 39,000  Level Albuquerque Center
08:06PM 33.0622 -112.5928 100° East 470 541 39,000  Level Albuquerque Center
08:07PM 33.0350 -112.4053 102° East 470 541 39,000  Level Albuquerque Center
08:08PM 33.0081 -112.2503 99° East 470 541 39,000  Level Albuquerque Center
08:09PM 32.9872 -112.0906 100° East 470 541 39,000  Level Albuquerque Center
08:10PM 32.9639 -111.9383 101° East 470 541 39,000  Level Albuquerque Center
08:11PM 32.9383 -111.7886 100° East 470 541 39,000  Level Albuquerque Center
08:12PM 32.9147 -111.6342 100° East 470 541 39,000  Level Albuquerque Center
08:13PM 32.8944 -111.4947 101° East 475 547 39,000  Level Albuquerque Center
08:14PM 32.8706 -111.3428 101° East 469 540 39,000  Level Albuquerque Center
08:15PM 32.8464 -111.1908 102° East 469 540 39,000  Level Albuquerque Center
08:16PM 32.8197 -111.0367 101° East 469 540 39,000  Level Albuquerque Center
08:17PM 32.7953 -110.8850 100° East 469 540 39,000  Level Albuquerque Center
08:18PM 32.7725 -110.7308 102° East 469 540 39,000  Level Albuquerque Center
08:19PM 32.7453 -110.5817 101° East 469 540 39,000  Level Albuquerque Center
08:20PM 32.7200 -110.4328 101° East 469 540 39,000  Level Albuquerque Center
08:21PM 32.6944 -110.2839 101° East 464 534 39,000  Level Albuquerque Center
08:22PM 32.6708 -110.1350 102° East 464 534 39,000  Level Albuquerque Center
08:23PM 32.6450 -109.9864 102° East 464 534 39,000  Level Albuquerque Center
08:24PM 32.6192 -109.8378 102° East 459 528 39,000  Level Albuquerque Center
08:25PM 32.5872 -109.6569 102° East 459 528 39,000  Level Albuquerque Center
08:26PM 32.5608 -109.5086 102° East 459 528 39,000  Level Albuquerque Center
08:27PM 32.5322 -109.3428 102° East 459 528 39,000  Level Albuquerque Center
08:28PM 32.5056 -109.1922 101° East 459 528 39,000  Level Albuquerque Center
08:29PM 32.4806 -109.0439 103° East 459 528 39,000  Level Albuquerque Center
08:30PM 32.4514 -108.8933 102° East 464 534 39,000  Level Albuquerque Center
08:31PM 32.4239 -108.7406 101° East 469 540 39,000  Level Albuquerque Center
08:32PM 32.3986 -108.5878 104° East 469 540 39,000 -1,020 Level Albuquerque Center
08:33PM 32.3667 -108.4372 103° East 469 540 37,000 -2,400 Descending Albuquerque Center
08:34PM 32.3386 -108.2897 102° East 469 540 34,300 -2,040 Descending Albuquerque Center
08:35PM 32.3125 -108.1419 102° East 464 534 33,000 -840 Descending Albuquerque Center
08:36PM 32.2864 -107.9994 103° East 458 527 32,700 -1,320 Descending Albuquerque Center
08:37PM 32.2600 -107.8592 102° East 441 507 30,400 -2,160 Descending Albuquerque Center
08:38PM 32.2353 -107.7242 102° East 430 495 28,400 -2,040 Descending Albuquerque Center
08:39PM 32.2106 -107.5917 103° East 420 483 26,400 -2,040 Descending Albuquerque Center
08:40PM 32.1858 -107.4617 101° East 409 471 24,400 -1,980 Descending Albuquerque Center
08:41PM 32.1669 -107.3514 103° East 395 455 22,700 -1,920 Descending Albuquerque Center
08:42PM 32.1400 -107.2164 104° East 385 443 20,600 -1,860 Descending Albuquerque Center
08:43PM 32.1167 -107.1039 103° East 365 420 18,600 -1,800 Descending Albuquerque Center
08:44PM 32.0936 -106.9864 102° East 353 406 17,000 -1,860 Descending Albuquerque Center
08:45PM 32.0744 -106.8811 103° East 347 399 15,200 -1,800 Descending Albuquerque Center
08:46PM 32.0531 -106.7758 105° East 342 394 13,500 -1,740 Descending Albuquerque Center
08:47PM 32.0253 -106.6514 102° East 320 368 11,500 -1,560 Descending Albuquerque Center
08:48PM 32.0103 -106.5683 103° East 311 358 10,300 -1,140 Descending Albuquerque Center
08:49PM 31.9886 -106.4583 103° East 274 315 9,100 -780 Descending Albuquerque Center
08:50PM 31.9733 -106.3803 105° East 244 281 8,600 -660 Descending Albuquerque Center
08:51PM 31.9603 -106.3242 120° Southeast 208 239 8,000 -900 Descending Albuquerque Center
08:52PM 31.9350 -106.2731 188° South 194 223 7,000 -1,020 Descending Albuquerque Center
08:53PM 31.8869 -106.2811 230° Southwest 193 222 6,000 -1,020 Descending Albuquerque Center
08:54PM 31.8519 -106.3303 230° Southwest 178 205 4,900 -900 Descending Albuquerque Center
08:55PM 31.8253 -106.3672 120° Southeast 157 181 4,200 -780 Descending Albuquerque Center
09:03PM 31.3530 -105.4335 301° West  Level FlightAware Approximate
09:04PM 31.4138 -105.5525 301° West  Level FlightAware Approximate
09:05PM 31.4745 -105.6715 301° West  Level FlightAware Approximate
09:06PM 31.5351 -105.7908 301° West  Level FlightAware Approximate